createdAt,value
2023-03-04T00:01:13.895Z,3.41
2023-03-04T00:06:06.010Z,2.94
2023-03-04T00:10:57.657Z,3.40
2023-03-04T00:15:49.302Z,3.52
2023-03-04T00:20:40.963Z,2.87
2023-03-04T00:25:33.602Z,3.54
2023-03-04T00:30:25.408Z,3.42
2023-03-04T00:35:17.134Z,3.23
2023-03-04T00:40:10.313Z,3.94
2023-03-04T00:45:02.022Z,3.59
2023-03-04T00:49:53.958Z,3.44
2023-03-04T00:54:46.057Z,1.98
2023-03-04T00:59:37.781Z,3.80
2023-03-04T01:04:29.596Z,2.13
2023-03-04T01:09:21.291Z,4.12
2023-03-04T01:14:13.095Z,3.28
2023-03-04T01:19:04.752Z,0.43
2023-03-04T01:23:56.484Z,3.37
2023-03-04T01:28:48.282Z,2.83
2023-03-04T01:33:40.133Z,2.31
2023-03-04T01:38:31.835Z,4.49
2023-03-04T01:43:28.290Z,2.93
2023-03-04T01:48:25.757Z,3.31
2023-03-04T01:53:22.627Z,4.42
2023-03-04T01:58:14.308Z,4.56
2023-03-04T02:03:12.473Z,4.55
2023-03-04T02:08:05.232Z,4.23
2023-03-04T02:12:57.371Z,4.54
2023-03-04T02:17:49.332Z,4.64
2023-03-04T02:22:51.625Z,2.25
2023-03-04T02:27:43.525Z,4.70
2023-03-04T02:32:35.242Z,4.13
2023-03-04T02:37:26.952Z,4.37
2023-03-04T02:42:19.380Z,4.37
2023-03-04T02:47:13.087Z,4.65
2023-03-04T02:52:18.482Z,4.24
2023-03-04T02:57:12.566Z,4.57
2023-03-04T03:02:07.788Z,4.78
2023-03-04T03:06:59.963Z,4.59
2023-03-04T03:11:52.501Z,4.53
2023-03-04T03:16:44.749Z,4.19
2023-03-04T03:21:36.641Z,3.20
2023-03-04T03:26:28.407Z,1.10
2023-03-04T03:31:20.194Z,4.42
2023-03-04T03:36:12.062Z,3.92
2023-03-04T03:41:03.873Z,4.48
2023-03-04T03:45:55.615Z,1.64
2023-03-04T03:50:47.759Z,4.56
2023-03-04T03:55:39.416Z,3.95
2023-03-04T04:00:31.429Z,4.86
2023-03-04T04:05:23.084Z,4.34
2023-03-04T04:10:15.531Z,3.97
2023-03-04T04:15:08.013Z,4.47
2023-03-04T04:19:59.689Z,4.29
2023-03-04T04:24:51.415Z,3.54
2023-03-04T04:29:43.069Z,4.84
2023-03-04T04:34:35.177Z,4.85
2023-03-04T04:39:26.915Z,3.25
2023-03-04T04:44:18.548Z,4.38
2023-03-04T04:49:10.720Z,4.31
2023-03-04T04:54:03.098Z,4.74
2023-03-04T04:58:58.264Z,4.05
2023-03-04T05:03:50.660Z,4.74
2023-03-04T05:08:42.931Z,3.93
2023-03-04T05:13:34.956Z,3.77
2023-03-04T05:18:27.804Z,4.72
2023-03-04T05:23:20.041Z,4.76
2023-03-04T05:28:12.556Z,4.59
2023-03-04T05:33:04.285Z,4.74
2023-03-04T05:37:55.973Z,4.18
2023-03-04T05:42:47.633Z,4.75
2023-03-04T05:47:39.328Z,3.29
2023-03-04T05:52:31.131Z,3.27
2023-03-04T05:57:22.788Z,4.38
2023-03-04T06:02:14.409Z,4.88
2023-03-04T06:07:06.125Z,3.46
2023-03-04T06:11:57.717Z,3.81
2023-03-04T06:16:49.421Z,4.21
2023-03-04T06:21:41.097Z,2.11
2023-03-04T06:26:33.711Z,2.23
2023-03-04T06:31:25.518Z,3.96
2023-03-04T06:36:17.447Z,4.62
2023-03-04T06:41:13.180Z,4.94
2023-03-04T06:46:07.730Z,4.24
2023-03-04T06:51:04.386Z,3.54
2023-03-04T06:55:56.793Z,4.77
2023-03-04T07:00:48.500Z,4.98
2023-03-04T07:05:40.370Z,4.54
2023-03-04T07:10:32.033Z,4.39
2023-03-04T07:15:23.674Z,5.16
2023-03-04T07:20:15.553Z,4.79
2023-03-04T07:25:07.671Z,4.74
2023-03-04T07:29:59.499Z,2.56
2023-03-04T07:34:51.522Z,5.19
2023-03-04T07:39:43.279Z,5.18
2023-03-04T07:44:35.739Z,4.15
2023-03-04T07:49:27.460Z,4.67
2023-03-04T07:54:20.250Z,5.35
2023-03-04T07:59:11.911Z,4.22
2023-03-04T08:04:06.003Z,3.20
2023-03-04T08:09:06.518Z,4.48
2023-03-04T08:13:58.808Z,4.73
2023-03-04T08:18:54.125Z,3.99
2023-03-04T08:23:46.642Z,3.73
2023-03-04T08:28:38.821Z,5.51
2023-03-04T08:33:31.879Z,5.04
2023-03-04T08:38:23.774Z,5.53
2023-03-04T08:43:15.379Z,4.53
2023-03-04T08:48:07.201Z,5.28
2023-03-04T08:52:59.265Z,5.44
2023-03-04T08:57:50.979Z,5.52
2023-03-04T09:02:42.602Z,5.73
2023-03-04T09:07:34.341Z,5.46
2023-03-04T09:12:26.207Z,5.71
2023-03-04T09:17:17.889Z,6.63
2023-03-04T09:22:09.500Z,7.10
2023-03-04T09:27:01.174Z,7.32
2023-03-04T09:31:52.772Z,6.98
2023-03-04T09:36:44.461Z,7.70
2023-03-04T09:41:44.191Z,7.68
2023-03-04T09:46:39.795Z,6.66
2023-03-04T09:51:40.821Z,8.10
2023-03-04T09:56:36.593Z,8.06
2023-03-04T10:01:39.957Z,7.65
2023-03-04T10:06:32.495Z,6.92
2023-03-04T10:11:40.851Z,7.46
2023-03-04T10:16:42.757Z,7.27
2023-03-04T10:21:45.054Z,7.93
2023-03-04T10:26:37.671Z,7.59
2023-03-04T10:31:38.318Z,6.65
2023-03-04T10:36:29.958Z,7.71
2023-03-04T10:41:26.143Z,7.99
2023-03-04T10:46:20.843Z,7.65
2023-03-04T10:51:23.580Z,8.36
2023-03-04T10:56:45.512Z,8.46
2023-03-04T11:01:37.637Z,7.75
2023-03-04T11:06:31.803Z,7.77
2023-03-04T11:11:34.748Z,7.84
2023-03-04T11:16:32.492Z,8.52
2023-03-04T11:21:26.916Z,8.87
2023-03-04T11:26:26.280Z,9.29
2023-03-04T11:31:29.521Z,8.69
2023-03-04T11:36:46.120Z,8.96
2023-03-04T11:41:51.206Z,8.55
2023-03-04T11:47:03.425Z,9.00
2023-03-04T11:52:13.457Z,8.61
2023-03-04T11:57:18.538Z,8.05
2023-03-04T12:02:18.019Z,7.88
2023-03-04T12:07:36.042Z,8.24
2023-03-04T12:12:27.622Z,8.21
2023-03-04T12:17:47.047Z,7.07
2023-03-04T12:22:49.832Z,8.39
2023-03-04T12:28:03.246Z,9.49
2023-03-04T12:33:23.168Z,9.57
2023-03-04T12:38:46.054Z,10.11
2023-03-04T12:43:43.353Z,9.80
2023-03-04T12:49:20.015Z,9.56
2023-03-04T12:54:31.352Z,9.55
2023-03-04T12:59:26.512Z,9.48
2023-03-04T13:04:40.577Z,8.29
2023-03-04T13:09:43.499Z,9.40
2023-03-04T13:14:35.382Z,9.23
2023-03-04T13:19:42.449Z,9.28
2023-03-04T13:24:50.968Z,9.18
2023-03-04T13:29:42.640Z,8.98
2023-03-04T13:34:46.616Z,9.56
2023-03-04T13:39:38.288Z,8.54
2023-03-04T13:44:58.198Z,9.19
2023-03-04T13:49:49.885Z,8.92
2023-03-04T13:54:41.732Z,8.84
2023-03-04T13:59:44.859Z,6.93
2023-03-04T14:04:42.155Z,7.95
2023-03-04T14:09:35.316Z,7.83
2023-03-04T14:14:30.677Z,7.97
2023-03-04T14:19:27.927Z,8.54
2023-03-04T14:24:21.070Z,7.15
2023-03-04T14:29:29.537Z,8.42
2023-03-04T14:34:29.930Z,8.22
2023-03-04T14:39:24.806Z,8.30
2023-03-04T14:44:22.370Z,8.50
2023-03-04T14:49:15.281Z,8.59
2023-03-04T14:54:08.304Z,8.64
2023-03-04T14:59:00.081Z,7.91
2023-03-04T15:03:55.760Z,8.51
2023-03-04T15:08:55.572Z,8.23
2023-03-04T15:13:50.388Z,8.05
2023-03-04T15:19:19.019Z,7.87
2023-03-04T15:24:13.543Z,7.89
2023-03-04T15:29:23.294Z,6.99
2023-03-04T15:34:17.652Z,7.45
2023-03-04T15:39:13.366Z,6.37
2023-03-04T15:44:05.152Z,7.74
2023-03-04T15:48:56.869Z,7.15
2023-03-04T15:53:53.871Z,7.16
2023-03-04T15:58:53.755Z,7.54
2023-03-04T16:03:45.397Z,6.85
2023-03-04T16:08:37.320Z,7.35
2023-03-04T16:13:29.052Z,6.48
2023-03-04T16:18:21.721Z,7.37
2023-03-04T16:23:17.122Z,7.40
2023-03-04T16:28:10.907Z,4.64
2023-03-04T16:33:02.658Z,6.48
2023-03-04T16:37:54.893Z,7.31
2023-03-04T16:42:46.561Z,7.29
2023-03-04T16:47:38.172Z,6.14
2023-03-04T16:52:31.946Z,4.94
2023-03-04T16:57:24.010Z,6.95
2023-03-04T17:02:17.789Z,6.87
2023-03-04T17:07:09.902Z,6.43
2023-03-04T17:12:01.541Z,6.07
2023-03-04T17:16:53.605Z,6.09
2023-03-04T17:21:45.245Z,4.60
2023-03-04T17:26:37.127Z,5.71
2023-03-04T17:31:28.876Z,5.73
2023-03-04T17:36:20.767Z,5.73
2023-03-04T17:41:17.320Z,6.43
2023-03-04T17:46:12.302Z,6.52
2023-03-04T17:51:04.445Z,4.14
2023-03-04T17:56:00.267Z,6.13
2023-03-04T18:00:53.624Z,4.50
2023-03-04T18:05:45.310Z,5.47
2023-03-04T18:10:37.167Z,5.69
2023-03-04T18:15:28.910Z,6.26
2023-03-04T18:20:20.696Z,5.29
2023-03-04T18:25:13.056Z,2.60
2023-03-04T18:30:05.944Z,5.92
2023-03-04T18:34:57.946Z,5.67
2023-03-04T18:39:49.991Z,4.67
2023-03-04T18:44:42.745Z,5.46
2023-03-04T18:49:34.505Z,4.71
2023-03-04T18:54:26.483Z,5.11
2023-03-04T18:59:22.418Z,6.31
2023-03-04T19:04:16.172Z,4.35
2023-03-04T19:09:08.540Z,5.60
2023-03-04T19:14:00.363Z,5.07
2023-03-04T19:18:52.413Z,3.64
2023-03-04T19:23:44.570Z,6.35
2023-03-04T19:28:36.694Z,5.01
2023-03-04T19:33:28.668Z,5.72
2023-03-04T19:38:20.419Z,5.04
2023-03-04T19:43:12.968Z,6.29
2023-03-04T19:48:05.011Z,4.81
2023-03-04T19:52:56.804Z,4.85
2023-03-04T19:57:48.541Z,6.30
2023-03-04T20:02:40.351Z,5.84
2023-03-04T20:07:32.449Z,6.13
2023-03-04T20:12:24.175Z,4.81
2023-03-04T20:17:16.064Z,2.76
2023-03-04T20:22:08.990Z,4.87
2023-03-04T20:27:00.878Z,5.71
2023-03-04T20:31:52.964Z,4.25
2023-03-04T20:36:44.619Z,6.04
2023-03-04T20:41:37.057Z,5.31
2023-03-04T20:46:34.931Z,6.24
2023-03-04T20:51:31.555Z,5.93
2023-03-04T20:56:23.770Z,4.80
2023-03-04T21:01:15.953Z,4.50
2023-03-04T21:06:10.485Z,6.14
2023-03-04T21:11:03.210Z,5.85
2023-03-04T21:15:54.874Z,5.23
2023-03-04T21:20:48.471Z,5.74
2023-03-04T21:25:41.450Z,6.00
2023-03-04T21:30:33.423Z,4.84
2023-03-04T21:35:25.278Z,5.31
2023-03-04T21:40:17.061Z,4.14
2023-03-04T21:45:10.899Z,6.13
2023-03-04T21:50:02.618Z,4.22
2023-03-04T21:54:55.963Z,4.77
2023-03-04T21:59:49.140Z,6.09
2023-03-04T22:04:41.283Z,5.15
2023-03-04T22:09:33.831Z,5.94
2023-03-04T22:14:29.317Z,5.00
2023-03-04T22:19:21.329Z,4.76
2023-03-04T22:24:13.107Z,5.83
2023-03-04T22:29:05.526Z,4.91
2023-03-04T22:34:03.676Z,5.74
2023-03-04T22:38:55.898Z,5.20
2023-03-04T22:43:48.649Z,5.03
2023-03-04T22:48:40.598Z,4.03
2023-03-04T22:53:32.226Z,5.67
2023-03-04T22:58:23.998Z,4.96
2023-03-04T23:03:15.849Z,3.84
2023-03-04T23:08:08.066Z,4.54
2023-03-04T23:12:59.956Z,5.18
2023-03-04T23:17:51.633Z,4.12
2023-03-04T23:22:44.507Z,3.44
2023-03-04T23:27:37.608Z,3.52
2023-03-04T23:32:29.282Z,4.12
2023-03-04T23:37:23.530Z,4.34
2023-03-04T23:42:15.848Z,4.61
2023-03-04T23:47:07.660Z,4.49
2023-03-04T23:52:00.024Z,4.01
2023-03-04T23:56:52.656Z,4.92
